sensor_id;sensor_type;location;lat;lon;timestamp;P1;durP1;ratioP1;P2;durP2;ratioP2
63346;SDS011;49472;49.880;8.650;2023-04-01T00:01:58;14.00;;;11.43;;
63346;SDS011;49472;49.880;8.650;2023-04-01T00:04:24;14.27;;;11.33;;
63346;SDS011;49472;49.880;8.650;2023-04-01T00:06:49;11.97;;;10.83;;
63346;SDS011;49472;49.880;8.650;2023-04-01T00:09:16;11.37;;;10.57;;
63346;SDS011;49472;49.880;8.650;2023-04-01T00:11:42;12.63;;;11.53;;
63346;SDS011;49472;49.880;8.650;2023-04-01T00:14:10;12.27;;;11.30;;
63346;SDS011;49472;49.880;8.650;2023-04-01T00:16:36;14.30;;;11.67;;
63346;SDS011;49472;49.880;8.650;2023-04-01T00:19:01;11.80;;;11.10;;
63346;SDS011;49472;49.880;8.650;2023-04-01T00:21:27;12.97;;;11.80;;
63346;SDS011;49472;49.880;8.650;2023-04-01T00:23:52;12.40;;;11.20;;
63346;SDS011;49472;49.880;8.650;2023-04-01T00:26:18;13.07;;;11.53;;
63346;SDS011;49472;49.880;8.650;2023-04-01T00:28:46;14.13;;;11.70;;
63346;SDS011;49472;49.880;8.650;2023-04-01T00:31:11;11.93;;;11.03;;
63346;SDS011;49472;49.880;8.650;2023-04-01T00:33:38;12.80;;;11.83;;
63346;SDS011;49472;49.880;8.650;2023-04-01T00:36:05;12.60;;;11.60;;
63346;SDS011;49472;49.880;8.650;2023-04-01T00:38:32;12.67;;;11.53;;
63346;SDS011;49472;49.880;8.650;2023-04-01T00:40:57;12.33;;;11.23;;
63346;SDS011;49472;49.880;8.650;2023-04-01T00:43:23;15.20;;;11.93;;
63346;SDS011;49472;49.880;8.650;2023-04-01T00:45:49;13.00;;;11.87;;
63346;SDS011;49472;49.880;8.650;2023-04-01T00:48:19;13.93;;;11.80;;
63346;SDS011;49472;49.880;8.650;2023-04-01T00:50:52;11.90;;;10.80;;
63346;SDS011;49472;49.880;8.650;2023-04-01T00:53:21;22.30;;;12.70;;
63346;SDS011;49472;49.880;8.650;2023-04-01T00:55:49;13.27;;;11.70;;
63346;SDS011;49472;49.880;8.650;2023-04-01T00:58:19;13.17;;;11.90;;
63346;SDS011;49472;49.880;8.650;2023-04-01T01:00:47;12.73;;;11.70;;
63346;SDS011;49472;49.880;8.650;2023-04-01T01:03:15;14.27;;;12.00;;
63346;SDS011;49472;49.880;8.650;2023-04-01T01:05:48;13.17;;;11.73;;
63346;SDS011;49472;49.880;8.650;2023-04-01T01:08:30;12.80;;;11.80;;
63346;SDS011;49472;49.880;8.650;2023-04-01T01:11:07;12.93;;;11.83;;
63346;SDS011;49472;49.880;8.650;2023-04-01T01:13:40;12.20;;;11.20;;
63346;SDS011;49472;49.880;8.650;2023-04-01T01:16:29;13.33;;;11.50;;
63346;SDS011;49472;49.880;8.650;2023-04-01T01:19:08;13.67;;;12.40;;
63346;SDS011;49472;49.880;8.650;2023-04-01T01:27:16;13.10;;;11.87;;
63346;SDS011;49472;49.880;8.650;2023-04-01T01:37:53;12.73;;;11.43;;
63346;SDS011;49472;49.880;8.650;2023-04-01T01:40:22;16.33;;;13.00;;
63346;SDS011;49472;49.880;8.650;2023-04-01T01:42:52;17.60;;;11.43;;
63346;SDS011;49472;49.880;8.650;2023-04-01T01:45:23;12.63;;;11.73;;
63346;SDS011;49472;49.880;8.650;2023-04-01T01:47:50;13.23;;;12.23;;
63346;SDS011;49472;49.880;8.650;2023-04-01T01:50:16;11.97;;;11.27;;
63346;SDS011;49472;49.880;8.650;2023-04-01T01:52:43;13.90;;;12.20;;
63346;SDS011;49472;49.880;8.650;2023-04-01T01:57:55;13.20;;;12.00;;
63346;SDS011;49472;49.880;8.650;2023-04-01T02:00:23;12.77;;;11.40;;
63346;SDS011;49472;49.880;8.650;2023-04-01T02:02:50;12.37;;;11.23;;
63346;SDS011;49472;49.880;8.650;2023-04-01T02:05:17;11.40;;;10.60;;
63346;SDS011;49472;49.880;8.650;2023-04-01T02:07:46;11.90;;;11.00;;
63346;SDS011;49472;49.880;8.650;2023-04-01T02:10:19;13.73;;;11.37;;
63346;SDS011;49472;49.880;8.650;2023-04-01T02:12:47;16.17;;;11.50;;
63346;SDS011;49472;49.880;8.650;2023-04-01T02:15:15;14.13;;;12.70;;
63346;SDS011;49472;49.880;8.650;2023-04-01T02:17:43;13.27;;;11.87;;
63346;SDS011;49472;49.880;8.650;2023-04-01T02:20:21;11.83;;;10.70;;
63346;SDS011;49472;49.880;8.650;2023-04-01T02:22:49;11.57;;;10.43;;
63346;SDS011;49472;49.880;8.650;2023-04-01T02:25:18;12.87;;;11.60;;
63346;SDS011;49472;49.880;8.650;2023-04-01T02:27:48;11.93;;;10.87;;
63346;SDS011;49472;49.880;8.650;2023-04-01T02:30:14;11.57;;;10.83;;
63346;SDS011;49472;49.880;8.650;2023-04-01T02:32:40;15.03;;;10.07;;
63346;SDS011;49472;49.880;8.650;2023-04-01T02:35:11;10.53;;;9.93;;
63346;SDS011;49472;49.880;8.650;2023-04-01T02:37:38;11.73;;;10.90;;
63346;SDS011;49472;49.880;8.650;2023-04-01T02:40:07;11.20;;;10.30;;
63346;SDS011;49472;49.880;8.650;2023-04-01T02:42:34;12.80;;;11.60;;
63346;SDS011;49472;49.880;8.650;2023-04-01T02:45:00;14.50;;;10.73;;
63346;SDS011;49472;49.880;8.650;2023-04-01T02:47:25;11.10;;;10.27;;
63346;SDS011;49472;49.880;8.650;2023-04-01T02:49:51;14.80;;;10.30;;
63346;SDS011;49472;49.880;8.650;2023-04-01T02:52:22;10.70;;;10.10;;
63346;SDS011;49472;49.880;8.650;2023-04-01T02:54:48;11.63;;;10.60;;
63346;SDS011;49472;49.880;8.650;2023-04-01T02:57:13;11.47;;;10.67;;
63346;SDS011;49472;49.880;8.650;2023-04-01T02:59:38;12.40;;;10.60;;
63346;SDS011;49472;49.880;8.650;2023-04-01T03:02:04;11.17;;;10.17;;
63346;SDS011;49472;49.880;8.650;2023-04-01T03:04:29;11.50;;;10.53;;
63346;SDS011;49472;49.880;8.650;2023-04-01T03:06:54;11.60;;;10.20;;
63346;SDS011;49472;49.880;8.650;2023-04-01T03:09:20;10.73;;;9.67;;
63346;SDS011;49472;49.880;8.650;2023-04-01T03:11:45;13.83;;;10.90;;
63346;SDS011;49472;49.880;8.650;2023-04-01T03:14:10;11.10;;;10.30;;
63346;SDS011;49472;49.880;8.650;2023-04-01T03:16:36;11.70;;;10.63;;
63346;SDS011;49472;49.880;8.650;2023-04-01T03:19:01;11.67;;;10.77;;
63346;SDS011;49472;49.880;8.650;2023-04-01T03:21:27;11.67;;;10.50;;
63346;SDS011;49472;49.880;8.650;2023-04-01T03:23:52;12.87;;;11.20;;
63346;SDS011;49472;49.880;8.650;2023-04-01T03:26:18;11.60;;;10.50;;
63346;SDS011;49472;49.880;8.650;2023-04-01T03:28:43;10.90;;;10.03;;
63346;SDS011;49472;49.880;8.650;2023-04-01T03:31:09;11.70;;;10.77;;
63346;SDS011;49472;49.880;8.650;2023-04-01T03:33:34;16.73;;;10.70;;
63346;SDS011;49472;49.880;8.650;2023-04-01T03:36:00;10.53;;;9.83;;
63346;SDS011;49472;49.880;8.650;2023-04-01T03:38:25;13.13;;;9.90;;
63346;SDS011;49472;49.880;8.650;2023-04-01T03:40:51;11.20;;;10.40;;
63346;SDS011;49472;49.880;8.650;2023-04-01T03:43:16;10.60;;;9.97;;
63346;SDS011;49472;49.880;8.650;2023-04-01T03:45:45;10.70;;;9.93;;
63346;SDS011;49472;49.880;8.650;2023-04-01T03:48:12;11.43;;;10.30;;
63346;SDS011;49472;49.880;8.650;2023-04-01T03:50:37;10.63;;;9.93;;
63346;SDS011;49472;49.880;8.650;2023-04-01T03:53:02;13.50;;;10.43;;
63346;SDS011;49472;49.880;8.650;2023-04-01T03:55:28;10.90;;;10.00;;
63346;SDS011;49472;49.880;8.650;2023-04-01T03:57:53;12.70;;;9.63;;
63346;SDS011;49472;49.880;8.650;2023-04-01T04:00:18;10.10;;;9.20;;
63346;SDS011;49472;49.880;8.650;2023-04-01T04:02:44;10.57;;;9.47;;
63346;SDS011;49472;49.880;8.650;2023-04-01T04:05:10;10.73;;;9.93;;
63346;SDS011;49472;49.880;8.650;2023-04-01T04:07:35;10.43;;;9.73;;
63346;SDS011;49472;49.880;8.650;2023-04-01T04:10:01;10.53;;;9.60;;
63346;SDS011;49472;49.880;8.650;2023-04-01T04:12:26;9.73;;;8.90;;
63346;SDS011;49472;49.880;8.650;2023-04-01T04:14:52;10.23;;;9.43;;
63346;SDS011;49472;49.880;8.650;2023-04-01T04:17:17;9.37;;;8.80;;
63346;SDS011;49472;49.880;8.650;2023-04-01T04:19:42;9.80;;;8.97;;
63346;SDS011;49472;49.880;8.650;2023-04-01T04:22:08;10.97;;;9.43;;
63346;SDS011;49472;49.880;8.650;2023-04-01T04:24:34;9.10;;;8.60;;
63346;SDS011;49472;49.880;8.650;2023-04-01T04:27:00;10.57;;;9.83;;
63346;SDS011;49472;49.880;8.650;2023-04-01T04:29:25;10.50;;;9.53;;
63346;SDS011;49472;49.880;8.650;2023-04-01T04:31:50;10.00;;;9.03;;
63346;SDS011;49472;49.880;8.650;2023-04-01T04:34:16;10.40;;;9.50;;
63346;SDS011;49472;49.880;8.650;2023-04-01T04:36:41;9.40;;;8.80;;
63346;SDS011;49472;49.880;8.650;2023-04-01T04:39:06;10.80;;;10.20;;
63346;SDS011;49472;49.880;8.650;2023-04-01T04:41:31;9.97;;;9.20;;
63346;SDS011;49472;49.880;8.650;2023-04-01T04:43:57;17.63;;;9.10;;
63346;SDS011;49472;49.880;8.650;2023-04-01T04:46:23;10.10;;;9.07;;
63346;SDS011;49472;49.880;8.650;2023-04-01T04:48:49;10.20;;;9.30;;
63346;SDS011;49472;49.880;8.650;2023-04-01T04:51:15;11.30;;;9.00;;
63346;SDS011;49472;49.880;8.650;2023-04-01T04:53:42;9.63;;;8.80;;
63346;SDS011;49472;49.880;8.650;2023-04-01T04:56:07;9.83;;;9.10;;
63346;SDS011;49472;49.880;8.650;2023-04-01T04:58:33;10.53;;;9.53;;
63346;SDS011;49472;49.880;8.650;2023-04-01T05:00:58;11.50;;;9.37;;
63346;SDS011;49472;49.880;8.650;2023-04-01T05:03:24;10.00;;;9.30;;
63346;SDS011;49472;49.880;8.650;2023-04-01T05:05:50;12.90;;;9.33;;
63346;SDS011;49472;49.880;8.650;2023-04-01T05:08:17;9.23;;;8.77;;
63346;SDS011;49472;49.880;8.650;2023-04-01T05:10:42;9.53;;;8.93;;
63346;SDS011;49472;49.880;8.650;2023-04-01T05:13:08;10.13;;;9.37;;
63346;SDS011;49472;49.880;8.650;2023-04-01T05:15:33;9.73;;;8.83;;
63346;SDS011;49472;49.880;8.650;2023-04-01T05:17:58;9.50;;;8.43;;
63346;SDS011;49472;49.880;8.650;2023-04-01T05:20:24;8.67;;;8.23;;
63346;SDS011;49472;49.880;8.650;2023-04-01T05:22:49;10.17;;;9.23;;
63346;SDS011;49472;49.880;8.650;2023-04-01T05:25:15;9.13;;;8.43;;
63346;SDS011;49472;49.880;8.650;2023-04-01T05:27:40;8.70;;;8.10;;
63346;SDS011;49472;49.880;8.650;2023-04-01T05:30:05;8.53;;;7.70;;
63346;SDS011;49472;49.880;8.650;2023-04-01T05:32:31;8.00;;;7.40;;
63346;SDS011;49472;49.880;8.650;2023-04-01T05:34:56;7.80;;;7.40;;
63346;SDS011;49472;49.880;8.650;2023-04-01T05:37:22;8.40;;;7.70;;
63346;SDS011;49472;49.880;8.650;2023-04-01T05:39:47;8.40;;;7.77;;
63346;SDS011;49472;49.880;8.650;2023-04-01T05:42:13;8.57;;;7.70;;
63346;SDS011;49472;49.880;8.650;2023-04-01T05:44:38;8.03;;;7.30;;
63346;SDS011;49472;49.880;8.650;2023-04-01T05:47:04;8.27;;;7.43;;
63346;SDS011;49472;49.880;8.650;2023-04-01T05:49:29;8.53;;;7.77;;
63346;SDS011;49472;49.880;8.650;2023-04-01T05:51:55;8.37;;;7.40;;
63346;SDS011;49472;49.880;8.650;2023-04-01T05:54:21;7.90;;;7.40;;
63346;SDS011;49472;49.880;8.650;2023-04-01T05:56:46;8.90;;;8.07;;
63346;SDS011;49472;49.880;8.650;2023-04-01T05:59:11;8.63;;;7.90;;
63346;SDS011;49472;49.880;8.650;2023-04-01T06:01:37;9.17;;;8.17;;
63346;SDS011;49472;49.880;8.650;2023-04-01T06:04:03;8.30;;;7.80;;
63346;SDS011;49472;49.880;8.650;2023-04-01T06:06:29;10.60;;;8.60;;
63346;SDS011;49472;49.880;8.650;2023-04-01T06:09:06;9.07;;;8.40;;
63346;SDS011;49472;49.880;8.650;2023-04-01T06:12:08;8.23;;;7.83;;
63346;SDS011;49472;49.880;8.650;2023-04-01T06:17:15;8.97;;;8.37;;
63346;SDS011;49472;49.880;8.650;2023-04-01T06:25:16;8.50;;;7.80;;
63346;SDS011;49472;49.880;8.650;2023-04-01T06:27:53;9.00;;;8.37;;
63346;SDS011;49472;49.880;8.650;2023-04-01T06:30:33;8.27;;;7.70;;
63346;SDS011;49472;49.880;8.650;2023-04-01T06:41:33;8.63;;;8.03;;
63346;SDS011;49472;49.880;8.650;2023-04-01T06:44:23;8.40;;;7.70;;
63346;SDS011;49472;49.880;8.650;2023-04-01T06:46:59;8.70;;;8.10;;
63346;SDS011;49472;49.880;8.650;2023-04-01T06:49:44;8.67;;;8.07;;
63346;SDS011;49472;49.880;8.650;2023-04-01T06:55:02;8.53;;;8.03;;
63346;SDS011;49472;49.880;8.650;2023-04-01T06:57:47;9.40;;;8.70;;
63346;SDS011;49472;49.880;8.650;2023-04-01T07:00:22;8.77;;;8.17;;
63346;SDS011;49472;49.880;8.650;2023-04-01T07:03:04;9.60;;;9.00;;
63346;SDS011;49472;49.880;8.650;2023-04-01T07:05:46;8.70;;;8.10;;
63346;SDS011;49472;49.880;8.650;2023-04-01T07:08:13;10.13;;;9.30;;
63346;SDS011;49472;49.880;8.650;2023-04-01T07:14:06;9.63;;;8.83;;
63346;SDS011;49472;49.880;8.650;2023-04-01T07:16:19;10.00;;;9.10;;
63346;SDS011;49472;49.880;8.650;2023-04-01T07:18:58;10.97;;;8.40;;
63346;SDS011;49472;49.880;8.650;2023-04-01T07:21:35;11.37;;;8.40;;
63346;SDS011;49472;49.880;8.650;2023-04-01T07:26:54;10.77;;;7.40;;
63346;SDS011;49472;49.880;8.650;2023-04-01T07:29:21;8.13;;;7.47;;
63346;SDS011;49472;49.880;8.650;2023-04-01T07:31:54;9.40;;;7.47;;
63346;SDS011;49472;49.880;8.650;2023-04-01T07:34:30;7.43;;;7.03;;
63346;SDS011;49472;49.880;8.650;2023-04-01T07:45:00;7.50;;;7.10;;
63346;SDS011;49472;49.880;8.650;2023-04-01T07:50:37;7.73;;;7.17;;
63346;SDS011;49472;49.880;8.650;2023-04-01T08:06:30;8.10;;;7.60;;
63346;SDS011;49472;49.880;8.650;2023-04-01T08:09:11;8.50;;;8.00;;
63346;SDS011;49472;49.880;8.650;2023-04-01T08:23:11;8.73;;;7.87;;
63346;SDS011;49472;49.880;8.650;2023-04-01T08:25:40;8.73;;;8.20;;
63346;SDS011;49472;49.880;8.650;2023-04-01T08:28:17;8.80;;;8.30;;
63346;SDS011;49472;49.880;8.650;2023-04-01T08:31:09;8.53;;;8.03;;
63346;SDS011;49472;49.880;8.650;2023-04-01T08:33:39;8.03;;;7.60;;
63346;SDS011;49472;49.880;8.650;2023-04-01T08:36:20;8.27;;;7.80;;
63346;SDS011;49472;49.880;8.650;2023-04-01T08:38:57;9.80;;;9.13;;
63346;SDS011;49472;49.880;8.650;2023-04-01T08:44:34;9.23;;;7.33;;
63346;SDS011;49472;49.880;8.650;2023-04-01T08:47:07;6.10;;;5.80;;
63346;SDS011;49472;49.880;8.650;2023-04-01T08:52:49;5.57;;;5.17;;
63346;SDS011;49472;49.880;8.650;2023-04-01T08:55:27;7.03;;;6.63;;
63346;SDS011;49472;49.880;8.650;2023-04-01T08:58:15;5.93;;;5.60;;
63346;SDS011;49472;49.880;8.650;2023-04-01T09:00:53;6.13;;;5.70;;
63346;SDS011;49472;49.880;8.650;2023-04-01T09:03:38;5.60;;;5.40;;
63346;SDS011;49472;49.880;8.650;2023-04-01T09:06:32;6.00;;;5.70;;
63346;SDS011;49472;49.880;8.650;2023-04-01T09:12:21;4.20;;;3.90;;
63346;SDS011;49472;49.880;8.650;2023-04-01T09:38:11;1.80;;;1.70;;
63346;SDS011;49472;49.880;8.650;2023-04-01T09:43:27;1.50;;;1.40;;
63346;SDS011;49472;49.880;8.650;2023-04-01T09:46:19;1.10;;;1.10;;
63346;SDS011;49472;49.880;8.650;2023-04-01T09:49:06;1.60;;;1.50;;
63346;SDS011;49472;49.880;8.650;2023-04-01T09:51:37;6.20;;;1.13;;
63346;SDS011;49472;49.880;8.650;2023-04-01T10:08:36;3.23;;;1.20;;
63346;SDS011;49472;49.880;8.650;2023-04-01T10:14:14;3.60;;;1.67;;
63346;SDS011;49472;49.880;8.650;2023-04-01T10:25:18;2.73;;;1.20;;
63346;SDS011;49472;49.880;8.650;2023-04-01T10:30:46;8.03;;;1.50;;
63346;SDS011;49472;49.880;8.650;2023-04-01T10:36:40;1.77;;;1.67;;
63346;SDS011;49472;49.880;8.650;2023-04-01T10:42:18;1.57;;;1.47;;
63346;SDS011;49472;49.880;8.650;2023-04-01T10:45:13;2.50;;;1.40;;
63346;SDS011;49472;49.880;8.650;2023-04-01T10:50:37;2.97;;;1.70;;
63346;SDS011;49472;49.880;8.650;2023-04-01T11:27:38;2.20;;;2.00;;
63346;SDS011;49472;49.880;8.650;2023-04-01T11:30:25;1.60;;;1.50;;
63346;SDS011;49472;49.880;8.650;2023-04-01T11:33:03;6.33;;;1.67;;
63346;SDS011;49472;49.880;8.650;2023-04-01T11:38:34;3.23;;;1.43;;
63346;SDS011;49472;49.880;8.650;2023-04-01T11:43:38;6.90;;;2.20;;
63346;SDS011;49472;49.880;8.650;2023-04-01T11:46:12;3.43;;;1.90;;
63346;SDS011;49472;49.880;8.650;2023-04-01T11:51:43;1.87;;;1.77;;
63346;SDS011;49472;49.880;8.650;2023-04-01T12:02:25;2.20;;;1.93;;
63346;SDS011;49472;49.880;8.650;2023-04-01T12:08:17;2.33;;;2.13;;
63346;SDS011;49472;49.880;8.650;2023-04-01T12:11:00;3.87;;;2.53;;
63346;SDS011;49472;49.880;8.650;2023-04-01T12:13:41;1.83;;;1.73;;
63346;SDS011;49472;49.880;8.650;2023-04-01T12:21:56;2.33;;;2.20;;
63346;SDS011;49472;49.880;8.650;2023-04-01T12:27:43;2.10;;;2.00;;
63346;SDS011;49472;49.880;8.650;2023-04-01T12:36:18;3.47;;;2.60;;
63346;SDS011;49472;49.880;8.650;2023-04-01T12:41:53;8.10;;;2.20;;
63346;SDS011;49472;49.880;8.650;2023-04-01T12:55:40;2.23;;;2.00;;
63346;SDS011;49472;49.880;8.650;2023-04-01T13:04:09;3.07;;;2.20;;
63346;SDS011;49472;49.880;8.650;2023-04-01T13:20:35;2.97;;;2.77;;
63346;SDS011;49472;49.880;8.650;2023-04-01T13:28:24;2.60;;;2.50;;
63346;SDS011;49472;49.880;8.650;2023-04-01T13:30:58;2.60;;;2.40;;
63346;SDS011;49472;49.880;8.650;2023-04-01T13:36:42;3.70;;;2.33;;
63346;SDS011;49472;49.880;8.650;2023-04-01T13:39:15;2.23;;;2.10;;
63346;SDS011;49472;49.880;8.650;2023-04-01T13:44:49;4.70;;;2.33;;
63346;SDS011;49472;49.880;8.650;2023-04-01T13:52:33;2.93;;;2.30;;
63346;SDS011;49472;49.880;8.650;2023-04-01T13:58:19;2.50;;;2.00;;
63346;SDS011;49472;49.880;8.650;2023-04-01T14:01:21;2.90;;;1.70;;
63346;SDS011;49472;49.880;8.650;2023-04-01T14:12:23;2.20;;;2.10;;
63346;SDS011;49472;49.880;8.650;2023-04-01T14:20:39;3.13;;;2.90;;
63346;SDS011;49472;49.880;8.650;2023-04-01T14:25:41;5.23;;;2.40;;
63346;SDS011;49472;49.880;8.650;2023-04-01T14:28:16;2.50;;;2.50;;
63346;SDS011;49472;49.880;8.650;2023-04-01T14:31:09;2.17;;;2.13;;
63346;SDS011;49472;49.880;8.650;2023-04-01T14:46:01;4.10;;;3.17;;
63346;SDS011;49472;49.880;8.650;2023-04-01T14:48:34;5.57;;;3.50;;
63346;SDS011;49472;49.880;8.650;2023-04-01T14:51:49;3.13;;;2.97;;
63346;SDS011;49472;49.880;8.650;2023-04-01T14:57:03;3.83;;;3.50;;
63346;SDS011;49472;49.880;8.650;2023-04-01T14:59:40;3.87;;;3.23;;
63346;SDS011;49472;49.880;8.650;2023-04-01T15:11:04;4.77;;;2.77;;
63346;SDS011;49472;49.880;8.650;2023-04-01T15:22:43;3.37;;;3.10;;
63346;SDS011;49472;49.880;8.650;2023-04-01T15:25:17;3.90;;;2.83;;
63346;SDS011;49472;49.880;8.650;2023-04-01T15:27:50;2.17;;;2.17;;
63346;SDS011;49472;49.880;8.650;2023-04-01T15:30:52;2.43;;;2.33;;
63346;SDS011;49472;49.880;8.650;2023-04-01T15:33:41;2.97;;;2.80;;
63346;SDS011;49472;49.880;8.650;2023-04-01T15:36:38;2.30;;;2.10;;
63346;SDS011;49472;49.880;8.650;2023-04-01T15:44:59;3.70;;;2.90;;
63346;SDS011;49472;49.880;8.650;2023-04-01T15:47:36;3.27;;;3.07;;
63346;SDS011;49472;49.880;8.650;2023-04-01T15:50:20;2.77;;;2.67;;
63346;SDS011;49472;49.880;8.650;2023-04-01T15:55:47;3.93;;;3.73;;
63346;SDS011;49472;49.880;8.650;2023-04-01T16:00:53;4.23;;;3.93;;
63346;SDS011;49472;49.880;8.650;2023-04-01T16:03:55;6.27;;;5.77;;
63346;SDS011;49472;49.880;8.650;2023-04-01T16:06:46;7.27;;;6.53;;
63346;SDS011;49472;49.880;8.650;2023-04-01T16:09:37;6.60;;;5.93;;
63346;SDS011;49472;49.880;8.650;2023-04-01T16:15:13;5.97;;;5.67;;
63346;SDS011;49472;49.880;8.650;2023-04-01T16:18:15;5.27;;;4.97;;
63346;SDS011;49472;49.880;8.650;2023-04-01T16:23:47;7.10;;;6.80;;
63346;SDS011;49472;49.880;8.650;2023-04-01T16:26:35;7.67;;;6.87;;
63346;SDS011;49472;49.880;8.650;2023-04-01T16:31:52;6.53;;;6.00;;
63346;SDS011;49472;49.880;8.650;2023-04-01T16:34:44;7.63;;;6.93;;
63346;SDS011;49472;49.880;8.650;2023-04-01T16:37:32;9.70;;;8.93;;
63346;SDS011;49472;49.880;8.650;2023-04-01T16:42:31;7.20;;;6.70;;
63346;SDS011;49472;49.880;8.650;2023-04-01T16:47:40;7.60;;;7.10;;
63346;SDS011;49472;49.880;8.650;2023-04-01T16:50:23;9.40;;;8.50;;
63346;SDS011;49472;49.880;8.650;2023-04-01T16:55:48;10.13;;;8.87;;
63346;SDS011;49472;49.880;8.650;2023-04-01T16:58:18;9.80;;;8.80;;
63346;SDS011;49472;49.880;8.650;2023-04-01T17:00:48;8.60;;;7.90;;
63346;SDS011;49472;49.880;8.650;2023-04-01T17:03:20;10.10;;;9.37;;
63346;SDS011;49472;49.880;8.650;2023-04-01T17:14:29;7.50;;;7.00;;
63346;SDS011;49472;49.880;8.650;2023-04-01T17:22:41;9.37;;;8.77;;
63346;SDS011;49472;49.880;8.650;2023-04-01T17:25:38;7.20;;;6.90;;
63346;SDS011;49472;49.880;8.650;2023-04-01T17:31:21;7.10;;;6.80;;
63346;SDS011;49472;49.880;8.650;2023-04-01T17:36:50;8.50;;;7.97;;
63346;SDS011;49472;49.880;8.650;2023-04-01T17:39:40;9.87;;;9.27;;
63346;SDS011;49472;49.880;8.650;2023-04-01T17:42:42;10.87;;;10.00;;
63346;SDS011;49472;49.880;8.650;2023-04-01T17:45:20;11.57;;;10.60;;
63346;SDS011;49472;49.880;8.650;2023-04-01T17:50:24;11.10;;;10.30;;
63346;SDS011;49472;49.880;8.650;2023-04-01T17:53:35;11.87;;;10.97;;
63346;SDS011;49472;49.880;8.650;2023-04-01T17:56:08;13.13;;;12.03;;
63346;SDS011;49472;49.880;8.650;2023-04-01T17:58:46;11.73;;;10.83;;
63346;SDS011;49472;49.880;8.650;2023-04-01T18:24:03;9.30;;;8.90;;
63346;SDS011;49472;49.880;8.650;2023-04-01T18:27:04;9.50;;;8.90;;
63346;SDS011;49472;49.880;8.650;2023-04-01T18:29:44;9.20;;;8.70;;
63346;SDS011;49472;49.880;8.650;2023-04-01T18:34:54;9.57;;;8.83;;
63346;SDS011;49472;49.880;8.650;2023-04-01T18:40:30;10.07;;;9.27;;
63346;SDS011;49472;49.880;8.650;2023-04-01T18:45:50;9.67;;;9.03;;
63346;SDS011;49472;49.880;8.650;2023-04-01T18:48:33;8.67;;;8.17;;
63346;SDS011;49472;49.880;8.650;2023-04-01T18:51:37;9.07;;;8.67;;
63346;SDS011;49472;49.880;8.650;2023-04-01T18:54:19;8.90;;;8.40;;
63346;SDS011;49472;49.880;8.650;2023-04-01T18:59:46;8.87;;;8.37;;
63346;SDS011;49472;49.880;8.650;2023-04-01T19:02:19;9.80;;;9.30;;
63346;SDS011;49472;49.880;8.650;2023-04-01T19:04:50;9.00;;;8.60;;
63346;SDS011;49472;49.880;8.650;2023-04-01T19:07:24;9.40;;;9.00;;
63346;SDS011;49472;49.880;8.650;2023-04-01T19:10:00;9.07;;;8.50;;
63346;SDS011;49472;49.880;8.650;2023-04-01T19:12:39;9.10;;;8.40;;
63346;SDS011;49472;49.880;8.650;2023-04-01T19:15:20;8.90;;;8.50;;
63346;SDS011;49472;49.880;8.650;2023-04-01T19:18:08;8.33;;;8.03;;
63346;SDS011;49472;49.880;8.650;2023-04-01T19:20:50;9.37;;;8.90;;
63346;SDS011;49472;49.880;8.650;2023-04-01T19:25:57;8.80;;;8.40;;
63346;SDS011;49472;49.880;8.650;2023-04-01T19:31:14;9.10;;;8.70;;
63346;SDS011;49472;49.880;8.650;2023-04-01T19:37:24;9.57;;;9.07;;
63346;SDS011;49472;49.880;8.650;2023-04-01T19:42:42;9.33;;;8.93;;
63346;SDS011;49472;49.880;8.650;2023-04-01T19:53:02;9.50;;;9.00;;
63346;SDS011;49472;49.880;8.650;2023-04-01T19:55:40;10.67;;;9.77;;
63346;SDS011;49472;49.880;8.650;2023-04-01T20:00:48;9.60;;;9.10;;
63346;SDS011;49472;49.880;8.650;2023-04-01T20:11:44;9.00;;;8.60;;
63346;SDS011;49472;49.880;8.650;2023-04-01T20:14:17;9.90;;;9.33;;
63346;SDS011;49472;49.880;8.650;2023-04-01T20:16:59;10.33;;;9.83;;
63346;SDS011;49472;49.880;8.650;2023-04-01T20:25:20;9.23;;;8.63;;
63346;SDS011;49472;49.880;8.650;2023-04-01T20:39:26;8.83;;;8.40;;
63346;SDS011;49472;49.880;8.650;2023-04-01T20:44:44;9.47;;;8.87;;
63346;SDS011;49472;49.880;8.650;2023-04-01T20:47:29;9.10;;;8.60;;
63346;SDS011;49472;49.880;8.650;2023-04-01T20:50:14;9.13;;;8.73;;
63346;SDS011;49472;49.880;8.650;2023-04-01T20:53:33;9.93;;;9.30;;
63346;SDS011;49472;49.880;8.650;2023-04-01T20:56:21;9.00;;;8.30;;
63346;SDS011;49472;49.880;8.650;2023-04-01T20:58:58;9.60;;;9.00;;
63346;SDS011;49472;49.880;8.650;2023-04-01T21:04:30;9.23;;;8.83;;
63346;SDS011;49472;49.880;8.650;2023-04-01T21:12:56;9.27;;;8.77;;
63346;SDS011;49472;49.880;8.650;2023-04-01T21:27:24;9.20;;;8.80;;
63346;SDS011;49472;49.880;8.650;2023-04-01T21:30:14;9.20;;;8.80;;
63346;SDS011;49472;49.880;8.650;2023-04-01T21:33:59;7.50;;;7.10;;
63346;SDS011;49472;49.880;8.650;2023-04-01T21:38:58;10.03;;;9.27;;
63346;SDS011;49472;49.880;8.650;2023-04-01T21:41:32;8.60;;;8.00;;
63346;SDS011;49472;49.880;8.650;2023-04-01T21:44:11;9.47;;;8.63;;
63346;SDS011;49472;49.880;8.650;2023-04-01T21:52:51;10.43;;;9.20;;
63346;SDS011;49472;49.880;8.650;2023-04-01T21:55:29;8.83;;;8.33;;
63346;SDS011;49472;49.880;8.650;2023-04-01T22:01:29;8.87;;;8.37;;
63346;SDS011;49472;49.880;8.650;2023-04-01T22:06:56;8.60;;;8.03;;
63346;SDS011;49472;49.880;8.650;2023-04-01T22:15:51;8.70;;;8.20;;
63346;SDS011;49472;49.880;8.650;2023-04-01T22:18:34;9.43;;;8.77;;
63346;SDS011;49472;49.880;8.650;2023-04-01T22:21:32;9.30;;;8.70;;
63346;SDS011;49472;49.880;8.650;2023-04-01T22:26:58;9.30;;;8.60;;
63346;SDS011;49472;49.880;8.650;2023-04-01T22:32:17;9.10;;;8.60;;
63346;SDS011;49472;49.880;8.650;2023-04-01T22:34:52;8.90;;;8.50;;
63346;SDS011;49472;49.880;8.650;2023-04-01T22:37:27;9.00;;;8.47;;
63346;SDS011;49472;49.880;8.650;2023-04-01T22:40:03;9.00;;;8.30;;
63346;SDS011;49472;49.880;8.650;2023-04-01T22:42:43;8.63;;;8.23;;
63346;SDS011;49472;49.880;8.650;2023-04-01T22:52:41;8.80;;;8.33;;
63346;SDS011;49472;49.880;8.650;2023-04-01T22:55:15;12.70;;;9.40;;
63346;SDS011;49472;49.880;8.650;2023-04-01T22:57:57;9.40;;;8.90;;
63346;SDS011;49472;49.880;8.650;2023-04-01T23:00:30;9.30;;;8.70;;
63346;SDS011;49472;49.880;8.650;2023-04-01T23:05:36;9.13;;;8.70;;
63346;SDS011;49472;49.880;8.650;2023-04-01T23:10:58;11.10;;;8.80;;
63346;SDS011;49472;49.880;8.650;2023-04-01T23:13:41;9.00;;;8.40;;
63346;SDS011;49472;49.880;8.650;2023-04-01T23:16:13;9.53;;;9.03;;
63346;SDS011;49472;49.880;8.650;2023-04-01T23:21:52;8.87;;;8.27;;
63346;SDS011;49472;49.880;8.650;2023-04-01T23:27:21;9.07;;;8.33;;
63346;SDS011;49472;49.880;8.650;2023-04-01T23:29:54;8.30;;;7.70;;
63346;SDS011;49472;49.880;8.650;2023-04-01T23:32:21;9.00;;;8.20;;
63346;SDS011;49472;49.880;8.650;2023-04-01T23:34:51;8.60;;;8.00;;
63346;SDS011;49472;49.880;8.650;2023-04-01T23:37:19;8.17;;;7.63;;
63346;SDS011;49472;49.880;8.650;2023-04-01T23:39:45;8.13;;;7.63;;
63346;SDS011;49472;49.880;8.650;2023-04-01T23:42:20;7.87;;;7.27;;
63346;SDS011;49472;49.880;8.650;2023-04-01T23:44:55;8.00;;;7.27;;
63346;SDS011;49472;49.880;8.650;2023-04-01T23:47:24;8.07;;;7.57;;
63346;SDS011;49472;49.880;8.650;2023-04-01T23:50:00;11.80;;;8.13;;
63346;SDS011;49472;49.880;8.650;2023-04-01T23:52:36;8.33;;;7.73;;
63346;SDS011;49472;49.880;8.650;2023-04-01T23:55:13;7.93;;;7.17;;
63346;SDS011;49472;49.880;8.650;2023-04-01T23:57:44;8.80;;;8.10;;
